createdAt,value
2023-04-21T00:00:16.988Z,79.34
2023-04-21T00:02:46.873Z,78.90
2023-04-21T00:05:15.868Z,79.19
2023-04-21T00:07:43.738Z,79.51
2023-04-21T00:10:12.830Z,79.64
2023-04-21T00:12:41.505Z,79.46
2023-04-21T00:15:10.299Z,80.07
2023-04-21T00:17:39.465Z,80.07
2023-04-21T00:20:10.851Z,80.18
2023-04-21T00:22:38.754Z,81.06
2023-04-21T00:25:08.264Z,81.72
2023-04-21T00:27:37.030Z,81.31
2023-04-21T00:30:07.155Z,81.44
2023-04-21T00:32:35.077Z,81.78
2023-04-21T00:35:02.968Z,82.07
2023-04-21T00:37:31.612Z,82.67
2023-04-21T00:40:00.322Z,83.02
2023-04-21T00:42:29.081Z,83.97
2023-04-21T00:44:57.739Z,83.84
2023-04-21T00:47:25.739Z,83.74
2023-04-21T00:49:53.622Z,84.58
2023-04-21T00:52:21.614Z,85.06
2023-04-21T00:54:49.585Z,86.10
2023-04-21T00:57:17.952Z,85.26
2023-04-21T00:59:45.804Z,84.91
2023-04-21T01:02:17.321Z,85.30
2023-04-21T01:04:45.946Z,85.33
2023-04-21T01:07:14.798Z,83.78
2023-04-21T01:09:43.523Z,83.67
2023-04-21T01:12:13.498Z,82.86
2023-04-21T01:14:42.233Z,82.54
2023-04-21T01:17:10.804Z,82.50
2023-04-21T01:19:43.932Z,83.20
2023-04-21T01:22:13.762Z,82.79
2023-04-21T01:24:49.752Z,82.61
2023-04-21T01:27:21.131Z,83.79
2023-04-21T01:29:52.916Z,83.96
2023-04-21T01:32:26.863Z,84.32
2023-04-21T01:34:58.297Z,84.36
2023-04-21T01:37:33.494Z,84.69
2023-04-21T01:40:07.617Z,86.50
2023-04-21T01:42:43.694Z,85.79
2023-04-21T01:45:12.479Z,85.32
2023-04-21T01:47:40.579Z,85.21
2023-04-21T01:50:10.267Z,84.88
2023-04-21T01:52:39.000Z,85.57
2023-04-21T01:55:07.692Z,85.90
2023-04-21T01:57:36.430Z,85.46
2023-04-21T02:00:06.354Z,84.50
2023-04-21T02:02:35.127Z,84.47
2023-04-21T02:05:04.244Z,84.26
2023-04-21T02:07:33.001Z,84.57
2023-04-21T02:10:01.979Z,84.16
2023-04-21T02:12:30.699Z,84.32
2023-04-21T02:14:58.601Z,84.54
2023-04-21T02:17:26.458Z,83.57
2023-04-21T02:19:55.155Z,84.17
2023-04-21T02:22:23.362Z,83.45
2023-04-21T02:24:51.821Z,83.81
2023-04-21T02:27:19.599Z,83.83
2023-04-21T02:29:48.223Z,84.33
2023-04-21T02:32:25.649Z,84.63
2023-04-21T02:34:55.121Z,85.66
2023-04-21T02:37:24.314Z,84.41
2023-04-21T02:39:52.281Z,83.82
2023-04-21T02:42:20.248Z,85.86
2023-04-21T02:44:49.091Z,86.20
2023-04-21T02:47:17.837Z,84.86
2023-04-21T02:49:46.612Z,85.06
2023-04-21T02:52:15.313Z,84.13
2023-04-21T02:54:43.963Z,84.18
2023-04-21T02:57:11.769Z,83.00
2023-04-21T02:59:39.573Z,83.32
2023-04-21T03:02:07.415Z,83.56
2023-04-21T03:04:36.493Z,82.70
2023-04-21T03:07:04.380Z,82.69
2023-04-21T03:09:32.288Z,82.63
2023-04-21T03:12:00.108Z,82.51
2023-04-21T03:14:27.949Z,82.03
2023-04-21T03:16:56.741Z,81.16
2023-04-21T03:19:24.693Z,81.00
2023-04-21T03:21:53.331Z,80.80
2023-04-21T03:24:21.707Z,81.02
2023-04-21T03:26:51.068Z,81.08
2023-04-21T03:29:20.054Z,81.56
2023-04-21T03:31:49.004Z,81.28
2023-04-21T03:34:16.986Z,80.84
2023-04-21T03:36:44.771Z,80.44
2023-04-21T03:39:19.860Z,80.18
2023-04-21T03:41:48.768Z,79.73
2023-04-21T03:44:16.616Z,79.69
2023-04-21T03:46:45.331Z,79.31
2023-04-21T03:49:13.210Z,80.03
2023-04-21T03:51:41.954Z,82.25
2023-04-21T03:54:09.734Z,83.49
2023-04-21T03:56:37.730Z,84.72
2023-04-21T03:59:06.415Z,83.45
2023-04-21T04:01:37.232Z,84.45
2023-04-21T04:04:05.482Z,85.62
2023-04-21T04:06:33.568Z,86.12
2023-04-21T04:09:04.755Z,83.94
2023-04-21T04:11:33.313Z,81.87
2023-04-21T04:14:01.167Z,79.01
2023-04-21T04:16:30.129Z,77.94
2023-04-21T04:18:58.852Z,76.90
2023-04-21T04:21:28.502Z,75.81
2023-04-21T04:23:57.089Z,75.58
2023-04-21T04:26:25.901Z,75.39
2023-04-21T04:28:56.699Z,74.93
2023-04-21T04:31:25.707Z,73.95
2023-04-21T04:33:55.788Z,74.12
2023-04-21T04:36:28.748Z,72.63
2023-04-21T04:38:58.671Z,54.63
2023-04-21T04:41:31.060Z,46.72
2023-04-21T04:44:00.982Z,46.50
2023-04-21T04:46:29.907Z,47.21
2023-04-21T04:48:58.614Z,49.76
2023-04-21T04:51:27.695Z,49.47
2023-04-21T04:53:56.389Z,53.25
2023-04-21T04:56:25.933Z,53.04
2023-04-21T04:58:54.647Z,56.00
2023-04-21T05:01:24.587Z,58.43
2023-04-21T05:03:54.215Z,59.61
2023-04-21T05:06:24.233Z,61.18
2023-04-21T05:08:52.096Z,60.09
2023-04-21T05:11:20.885Z,56.06
2023-04-21T05:13:49.591Z,51.29
2023-04-21T05:16:19.189Z,47.08
2023-04-21T05:18:51.154Z,43.67
2023-04-21T05:21:27.963Z,48.51
2023-04-21T05:23:59.442Z,51.43
2023-04-21T05:26:30.149Z,56.42
2023-04-21T05:28:59.271Z,55.09
2023-04-21T05:31:28.940Z,53.51
2023-04-21T05:33:58.435Z,47.83
2023-04-21T05:36:28.187Z,47.57
2023-04-21T05:38:55.977Z,48.71
2023-04-21T05:41:24.871Z,42.85
2023-04-21T05:43:52.718Z,42.72
2023-04-21T05:46:21.752Z,43.28
2023-04-21T05:48:50.416Z,44.49
2023-04-21T05:51:19.071Z,48.24
2023-04-21T05:53:47.829Z,49.72
2023-04-21T05:56:16.445Z,50.05
2023-04-21T05:58:44.280Z,49.39
2023-04-21T06:01:13.386Z,52.43
2023-04-21T06:03:41.304Z,54.44
2023-04-21T06:06:11.711Z,51.33
2023-04-21T06:08:40.398Z,52.38
2023-04-21T06:11:08.341Z,52.65
2023-04-21T06:13:38.230Z,53.25
2023-04-21T06:16:06.992Z,50.02
2023-04-21T06:18:36.726Z,51.39
2023-04-21T06:21:05.824Z,50.44
2023-04-21T06:23:33.725Z,48.99
2023-04-21T06:26:07.152Z,48.16
2023-04-21T06:28:37.093Z,47.10
2023-04-21T06:31:08.680Z,46.31
2023-04-21T06:33:37.092Z,40.15
2023-04-21T06:36:06.671Z,44.67
2023-04-21T06:38:36.352Z,39.48
2023-04-21T06:41:05.877Z,36.75
2023-04-21T06:43:34.525Z,32.89
2023-04-21T06:46:04.179Z,28.95
2023-04-21T06:48:32.296Z,31.69
2023-04-21T06:51:02.857Z,34.20
2023-04-21T06:53:31.838Z,30.94
2023-04-21T06:56:00.440Z,28.48
2023-04-21T06:58:28.936Z,28.18
2023-04-21T07:00:58.588Z,28.08
2023-04-21T07:03:27.247Z,25.79
2023-04-21T07:05:55.826Z,27.65
2023-04-21T07:08:25.886Z,26.19
2023-04-21T07:10:54.328Z,26.32
2023-04-21T07:13:22.773Z,26.52
2023-04-21T07:15:51.472Z,25.62
2023-04-21T07:18:19.949Z,25.58
2023-04-21T07:20:49.550Z,28.75
2023-04-21T07:23:19.575Z,26.55
2023-04-21T07:25:49.268Z,26.25
2023-04-21T07:28:18.865Z,26.62
2023-04-21T07:30:47.413Z,29.93
2023-04-21T07:33:16.428Z,37.37
2023-04-21T07:35:46.006Z,39.45
2023-04-21T07:38:15.648Z,41.00
2023-04-21T07:40:43.519Z,41.19
2023-04-21T07:43:11.438Z,40.63
2023-04-21T07:45:40.164Z,41.93
2023-04-21T07:48:09.739Z,39.98
2023-04-21T07:50:37.772Z,40.96
2023-04-21T07:53:06.562Z,38.95
2023-04-21T07:55:37.433Z,37.94
2023-04-21T07:58:06.988Z,37.75
2023-04-21T08:00:36.856Z,39.07
2023-04-21T08:03:04.753Z,39.08
2023-04-21T08:05:35.857Z,38.94
2023-04-21T08:08:06.029Z,38.49
2023-04-21T08:10:34.380Z,37.63
2023-04-21T08:13:06.618Z,38.19
2023-04-21T08:15:35.536Z,38.88
2023-04-21T08:18:03.331Z,38.43
2023-04-21T08:20:32.951Z,37.80
2023-04-21T08:23:01.539Z,38.74
2023-04-21T08:25:29.601Z,37.77
2023-04-21T08:28:02.043Z,36.81
2023-04-21T08:30:30.222Z,36.61
2023-04-21T08:32:59.896Z,37.02
2023-04-21T08:35:27.668Z,35.76
2023-04-21T08:37:57.677Z,37.84
2023-04-21T08:40:36.508Z,36.97
2023-04-21T08:43:10.069Z,35.55
2023-04-21T08:45:37.956Z,34.73
2023-04-21T08:48:07.247Z,36.01
2023-04-21T08:50:36.446Z,37.03
2023-04-21T08:53:04.272Z,37.44
2023-04-21T08:55:33.854Z,36.45
2023-04-21T08:58:07.100Z,37.83
2023-04-21T09:00:41.660Z,36.43
2023-04-21T09:03:23.187Z,35.46
2023-04-21T09:06:07.014Z,36.38
2023-04-21T09:08:43.130Z,36.28
2023-04-21T09:11:15.943Z,37.20
2023-04-21T09:13:45.573Z,36.57
2023-04-21T09:16:22.395Z,36.04
2023-04-21T09:18:51.902Z,35.07
2023-04-21T09:21:21.258Z,35.29
2023-04-21T09:23:52.664Z,35.04
2023-04-21T09:26:23.470Z,36.01
2023-04-21T09:28:53.840Z,35.78
2023-04-21T09:31:29.435Z,36.48
2023-04-21T09:34:00.779Z,37.06
2023-04-21T09:36:32.351Z,36.51
2023-04-21T09:41:35.507Z,35.65
2023-04-21T09:44:06.890Z,35.39
2023-04-21T09:46:37.875Z,35.76
2023-04-21T09:49:07.194Z,36.00
2023-04-21T09:54:33.025Z,34.96
2023-04-21T09:57:04.855Z,36.12
2023-04-21T09:59:47.618Z,35.32
2023-04-21T10:02:20.652Z,34.20
2023-04-21T10:04:49.507Z,35.45
2023-04-21T10:07:18.389Z,36.33
2023-04-21T10:09:56.880Z,35.86
2023-04-21T10:12:27.701Z,37.31
2023-04-21T10:14:58.522Z,37.62
2023-04-21T10:17:27.861Z,37.59
2023-04-21T10:19:59.673Z,36.13
2023-04-21T10:22:33.781Z,35.38
2023-04-21T10:25:04.971Z,35.08
2023-04-21T10:27:42.192Z,35.04
2023-04-21T10:30:23.261Z,32.30
2023-04-21T10:33:05.965Z,33.28
2023-04-21T10:36:03.020Z,33.24
2023-04-21T10:38:43.997Z,33.08
2023-04-21T10:41:30.861Z,34.85
2023-04-21T10:44:12.344Z,34.48
2023-04-21T10:47:01.243Z,33.25
2023-04-21T10:49:31.599Z,32.39
2023-04-21T10:52:00.518Z,32.54
2023-04-21T10:54:50.229Z,33.18
2023-04-21T10:57:20.864Z,33.19
2023-04-21T10:59:50.004Z,33.80
2023-04-21T11:02:20.127Z,34.34
2023-04-21T11:04:54.530Z,33.67
2023-04-21T11:07:25.464Z,33.29
2023-04-21T11:10:07.947Z,32.23
2023-04-21T11:12:41.874Z,32.80
2023-04-21T11:15:14.648Z,32.76
2023-04-21T11:17:47.443Z,32.46
2023-04-21T11:20:15.275Z,31.09
2023-04-21T11:22:43.782Z,33.25
2023-04-21T11:25:19.117Z,32.31
2023-04-21T11:27:56.787Z,33.41
2023-04-21T11:30:36.248Z,31.62
2023-04-21T11:33:05.077Z,32.59
2023-04-21T11:35:33.744Z,31.05
2023-04-21T11:38:08.852Z,30.56
2023-04-21T11:40:48.844Z,32.04
2023-04-21T11:43:17.769Z,31.90
2023-04-21T11:45:51.166Z,31.90
2023-04-21T11:48:20.068Z,30.77
2023-04-21T11:50:50.999Z,31.67
2023-04-21T11:53:20.294Z,32.87
2023-04-21T11:55:48.969Z,33.18
2023-04-21T11:58:18.175Z,33.06
2023-04-21T12:00:46.996Z,32.98
2023-04-21T12:03:16.480Z,33.09
2023-04-21T12:05:44.397Z,32.89
2023-04-21T12:08:16.725Z,32.95
2023-04-21T12:10:47.355Z,32.96
2023-04-21T12:13:23.929Z,33.60
2023-04-21T12:15:52.591Z,33.12
2023-04-21T12:18:21.598Z,33.33
2023-04-21T12:20:54.989Z,34.69
2023-04-21T12:23:23.690Z,34.15
2023-04-21T12:25:53.342Z,34.90
2023-04-21T12:28:21.309Z,33.52
2023-04-21T12:30:50.002Z,33.58
2023-04-21T12:33:17.959Z,35.54
2023-04-21T12:35:46.676Z,35.71
2023-04-21T12:38:14.552Z,35.57
2023-04-21T12:40:42.429Z,35.83
2023-04-21T12:43:11.083Z,35.41
2023-04-21T12:45:39.777Z,36.40
2023-04-21T12:48:08.492Z,36.96
2023-04-21T12:50:37.145Z,37.47
2023-04-21T12:53:05.822Z,36.40
2023-04-21T12:55:36.906Z,37.54
2023-04-21T12:58:05.552Z,37.66
2023-04-21T13:00:36.055Z,37.72
2023-04-21T13:03:05.069Z,36.95
2023-04-21T13:05:34.208Z,36.36
2023-04-21T13:08:02.876Z,35.46
2023-04-21T13:10:31.631Z,36.00
2023-04-21T13:13:00.295Z,35.08
2023-04-21T13:15:28.081Z,35.08
2023-04-21T13:17:55.900Z,34.29
2023-04-21T13:20:24.862Z,34.88
2023-04-21T13:22:53.602Z,33.08
2023-04-21T13:25:22.349Z,33.25
2023-04-21T13:27:52.874Z,32.80
2023-04-21T13:30:22.215Z,34.62
2023-04-21T13:32:51.031Z,35.19
2023-04-21T13:35:20.054Z,35.31
2023-04-21T13:37:50.372Z,35.17
2023-04-21T13:40:19.484Z,35.05
2023-04-21T13:42:48.183Z,35.22
2023-04-21T13:45:17.193Z,34.69
2023-04-21T13:47:46.759Z,34.25
2023-04-21T13:50:15.554Z,34.04
2023-04-21T13:52:44.679Z,34.39
2023-04-21T13:55:13.420Z,35.36
2023-04-21T13:57:42.435Z,33.87
2023-04-21T14:00:12.317Z,32.91
2023-04-21T14:02:42.181Z,33.00
2023-04-21T14:05:10.397Z,33.43
2023-04-21T14:07:39.292Z,33.63
2023-04-21T14:10:08.870Z,33.55
2023-04-21T14:12:37.552Z,32.87
2023-04-21T14:15:09.648Z,33.72
2023-04-21T14:17:38.369Z,34.03
2023-04-21T14:20:09.693Z,33.20
2023-04-21T14:22:39.816Z,33.21
2023-04-21T14:25:08.305Z,33.74
2023-04-21T14:27:37.172Z,32.77
2023-04-21T14:30:07.683Z,33.26
2023-04-21T14:32:36.384Z,32.96
2023-04-21T14:35:05.684Z,32.14
2023-04-21T14:37:35.250Z,31.26
2023-04-21T14:40:04.381Z,32.80
2023-04-21T14:42:33.346Z,31.20
2023-04-21T14:45:01.219Z,31.46
2023-04-21T14:47:29.821Z,30.99
2023-04-21T14:49:58.520Z,31.44
2023-04-21T14:52:27.672Z,32.61
2023-04-21T14:54:56.384Z,30.19
2023-04-21T14:57:24.991Z,30.73
2023-04-21T14:59:54.394Z,30.68
2023-04-21T15:02:23.256Z,30.10
2023-04-21T15:04:52.161Z,29.89
2023-04-21T15:07:24.316Z,32.84
2023-04-21T15:09:55.647Z,31.68
2023-04-21T15:12:24.372Z,30.80
2023-04-21T15:14:53.427Z,29.62
2023-04-21T15:17:22.030Z,29.92
2023-04-21T15:19:50.855Z,30.99
2023-04-21T15:22:19.682Z,30.30
2023-04-21T15:24:48.691Z,29.52
2023-04-21T15:27:17.766Z,30.98
2023-04-21T15:29:45.545Z,29.82
2023-04-21T15:32:15.186Z,31.23
2023-04-21T15:34:43.813Z,29.85
2023-04-21T15:37:12.578Z,30.30
2023-04-21T15:39:41.623Z,31.51
2023-04-21T15:42:10.381Z,31.44
2023-04-21T15:44:39.858Z,32.07
2023-04-21T15:47:08.590Z,33.10
2023-04-21T15:49:37.636Z,32.13
2023-04-21T15:52:07.292Z,31.90
2023-04-21T15:54:36.623Z,31.69
2023-04-21T15:57:05.905Z,33.14
2023-04-21T15:59:33.718Z,32.39
2023-04-21T16:02:02.747Z,32.53
2023-04-21T16:04:30.904Z,32.61
2023-04-21T16:06:59.681Z,32.52
2023-04-21T16:09:28.371Z,33.29
2023-04-21T16:11:57.611Z,33.86
2023-04-21T16:14:26.274Z,33.57
2023-04-21T16:16:55.031Z,34.89
2023-04-21T16:19:23.966Z,34.41
2023-04-21T16:21:53.472Z,35.12
2023-04-21T16:24:22.251Z,36.00
2023-04-21T16:26:51.023Z,35.33
2023-04-21T16:29:20.536Z,35.39
2023-04-21T16:31:49.278Z,34.93
2023-04-21T16:34:18.096Z,36.32
2023-04-21T16:36:47.474Z,36.18
2023-04-21T16:39:15.310Z,35.96
2023-04-21T16:41:44.005Z,36.93
2023-04-21T16:44:12.694Z,36.60
2023-04-21T16:46:41.607Z,36.78
2023-04-21T16:49:12.456Z,37.27
2023-04-21T16:51:44.781Z,38.44
2023-04-21T16:54:14.101Z,39.85
2023-04-21T16:56:42.865Z,40.87
2023-04-21T16:59:12.444Z,40.37
2023-04-21T17:01:41.296Z,42.38
2023-04-21T17:04:14.154Z,41.29
2023-04-21T17:06:43.358Z,42.16
2023-04-21T17:09:12.089Z,42.15
2023-04-21T17:11:41.637Z,42.29
2023-04-21T17:14:11.098Z,42.79
2023-04-21T17:16:40.968Z,42.99
2023-04-21T17:19:10.451Z,42.69
2023-04-21T17:21:39.121Z,45.75
2023-04-21T17:24:08.684Z,44.77
2023-04-21T17:26:37.720Z,45.15
2023-04-21T17:29:08.942Z,45.61
2023-04-21T17:31:38.713Z,46.64
2023-04-21T17:34:08.299Z,47.21
2023-04-21T17:36:37.072Z,47.54
2023-04-21T17:39:05.949Z,47.36
2023-04-21T17:41:35.537Z,47.61
2023-04-21T17:44:05.329Z,48.03
2023-04-21T17:46:34.218Z,48.42
2023-04-21T17:49:03.748Z,47.61
2023-04-21T17:51:32.854Z,49.45
2023-04-21T17:54:01.554Z,51.16
2023-04-21T17:56:31.247Z,52.82
2023-04-21T17:59:01.280Z,54.02
2023-04-21T18:01:31.141Z,54.49
2023-04-21T18:04:01.598Z,54.12
2023-04-21T18:06:31.992Z,55.40
2023-04-21T18:09:01.652Z,58.14
2023-04-21T18:11:31.470Z,59.68
2023-04-21T18:14:02.366Z,59.94
2023-04-21T18:16:30.302Z,57.42
2023-04-21T18:18:58.193Z,56.83
2023-04-21T18:21:28.467Z,57.79
2023-04-21T18:23:58.072Z,58.29
2023-04-21T18:26:29.127Z,59.90
2023-04-21T18:28:58.449Z,61.67
2023-04-21T18:31:29.054Z,62.33
2023-04-21T18:34:00.511Z,61.44
2023-04-21T18:36:32.480Z,62.37
2023-04-21T18:39:01.258Z,61.42
2023-04-21T18:41:30.841Z,61.33
2023-04-21T18:44:00.435Z,61.27
2023-04-21T18:46:37.900Z,60.83
2023-04-21T18:49:07.628Z,58.42
2023-04-21T18:51:37.238Z,60.50
2023-04-21T18:54:12.626Z,63.15
2023-04-21T18:56:41.501Z,61.35
2023-04-21T18:59:10.359Z,63.80
2023-04-21T19:01:40.566Z,63.72
2023-04-21T19:04:10.827Z,63.32
2023-04-21T19:06:39.885Z,62.58
2023-04-21T19:09:08.631Z,63.55
2023-04-21T19:11:38.354Z,64.03
2023-04-21T19:14:07.142Z,65.46
2023-04-21T19:16:36.898Z,65.86
2023-04-21T19:19:06.138Z,66.60
2023-04-21T19:21:35.802Z,66.54
2023-04-21T19:24:05.926Z,66.67
2023-04-21T19:26:35.832Z,67.08
2023-04-21T19:29:05.123Z,69.32
2023-04-21T19:31:33.944Z,67.03
2023-04-21T19:34:02.737Z,65.39
2023-04-21T19:36:31.693Z,65.77
2023-04-21T19:39:00.580Z,66.65
2023-04-21T19:41:30.151Z,66.74
2023-04-21T19:43:58.922Z,67.92
2023-04-21T19:46:28.596Z,64.82
2023-04-21T19:48:57.387Z,67.08
2023-04-21T19:51:28.076Z,67.40
2023-04-21T19:54:10.163Z,69.51
2023-04-21T19:56:41.142Z,67.18
2023-04-21T19:59:10.760Z,65.89
2023-04-21T20:01:39.922Z,64.50
2023-04-21T20:04:11.885Z,66.20
2023-04-21T20:06:41.844Z,68.41
2023-04-21T20:09:10.693Z,68.92
2023-04-21T20:11:39.463Z,68.03
2023-04-21T20:14:08.291Z,65.03
2023-04-21T20:16:38.303Z,68.62
2023-04-21T20:19:07.015Z,68.67
2023-04-21T20:21:36.628Z,71.18
2023-04-21T20:24:05.740Z,73.88
2023-04-21T20:26:35.645Z,73.75
2023-04-21T20:29:05.084Z,73.33
2023-04-21T20:31:34.818Z,73.09
2023-04-21T20:34:03.642Z,74.69
2023-04-21T20:36:33.749Z,76.59
2023-04-21T20:39:06.615Z,75.54
2023-04-21T20:41:35.386Z,76.30
2023-04-21T20:44:05.655Z,75.75
2023-04-21T20:46:35.353Z,76.47
2023-04-21T20:49:05.270Z,75.84
2023-04-21T20:51:35.126Z,77.23
2023-04-21T20:54:03.964Z,76.65
2023-04-21T20:56:33.587Z,75.80
2023-04-21T20:59:03.197Z,74.46
2023-04-21T21:01:37.009Z,73.61
2023-04-21T21:04:06.077Z,74.50
2023-04-21T21:06:35.213Z,74.53
2023-04-21T21:09:05.181Z,73.39
2023-04-21T21:11:33.940Z,73.10
2023-04-21T21:14:03.593Z,72.39
2023-04-21T21:16:33.265Z,73.67
2023-04-21T21:19:02.894Z,72.76
2023-04-21T21:21:31.838Z,73.23
2023-04-21T21:24:01.483Z,74.38
2023-04-21T21:26:30.829Z,75.32
2023-04-21T21:29:00.459Z,74.90
2023-04-21T21:31:30.145Z,74.88
2023-04-21T21:33:59.028Z,74.90
2023-04-21T21:36:28.628Z,74.78
2023-04-21T21:38:58.246Z,75.50
2023-04-21T21:41:27.935Z,75.15
2023-04-21T21:43:57.463Z,74.61
2023-04-21T21:46:27.125Z,74.88
2023-04-21T21:48:56.758Z,76.14
2023-04-21T21:51:28.114Z,74.20
2023-04-21T21:53:57.733Z,74.23
2023-04-21T21:56:27.716Z,72.26
2023-04-21T21:58:57.327Z,70.72
2023-04-21T22:01:26.229Z,70.30
2023-04-21T22:03:56.714Z,71.24
2023-04-21T22:06:28.717Z,72.91
2023-04-21T22:08:57.485Z,72.02
2023-04-21T22:11:26.290Z,72.63
2023-04-21T22:13:55.101Z,73.05
2023-04-21T22:16:24.692Z,74.75
2023-04-21T22:18:54.965Z,75.60
2023-04-21T22:21:28.510Z,75.22
2023-04-21T22:23:57.369Z,79.31
2023-04-21T22:26:26.864Z,81.28
2023-04-21T22:28:56.482Z,81.88
2023-04-21T22:31:26.118Z,82.29
2023-04-21T22:33:54.864Z,83.14
2023-04-21T22:36:24.881Z,83.25
2023-04-21T22:38:54.440Z,80.46
2023-04-21T22:41:23.288Z,79.26
2023-04-21T22:43:52.079Z,78.13
2023-04-21T22:46:21.160Z,79.25
2023-04-21T22:48:51.529Z,78.01
2023-04-21T22:51:21.712Z,77.97
2023-04-21T22:53:51.227Z,78.48
2023-04-21T22:56:19.996Z,78.16
2023-04-21T22:58:48.864Z,77.72
2023-04-21T23:01:17.713Z,80.26
2023-04-21T23:03:46.610Z,78.24
2023-04-21T23:06:15.456Z,79.29
2023-04-21T23:08:43.298Z,77.84
2023-04-21T23:11:12.133Z,80.40
2023-04-21T23:13:42.172Z,78.70
2023-04-21T23:16:10.998Z,79.34
2023-04-21T23:18:40.773Z,80.12
2023-04-21T23:21:09.533Z,79.01
2023-04-21T23:23:38.177Z,80.05
2023-04-21T23:26:06.984Z,81.93
2023-04-21T23:28:36.542Z,81.98
2023-04-21T23:31:06.327Z,82.58
2023-04-21T23:33:35.302Z,80.08
2023-04-21T23:36:05.093Z,81.21
2023-04-21T23:38:34.620Z,81.33
2023-04-21T23:41:04.206Z,79.44
2023-04-21T23:43:34.746Z,79.42
2023-04-21T23:46:04.792Z,79.26
2023-04-21T23:48:35.079Z,79.28
2023-04-21T23:51:04.074Z,78.57
2023-04-21T23:53:33.085Z,79.48
2023-04-21T23:56:02.678Z,79.25
2023-04-21T23:58:31.452Z,80.50
